Time;durP1;ratioP1;P1;durP2;ratioP2;P2;SDS_P1;SDS_P2;PMS_P1;PMS_P2;Temp;Humidity;BMP_temperature;BMP_pressure;BME280_temperature;BME280_humidity;BME280_pressure;Samples;Min_cycle;Max_cycle;Signal;HPM_P1;HPM_P2
2023/12/18 00:00:17;;;;;;;7.53;4.60;;;;;;;;;;5056182;28;20140;-65
2023/12/18 00:02:42;;;;;;;8.82;4.78;;;;;;;;;;5056829;28;20084;-65
2023/12/18 00:05:09;;;;;;;6.45;4.57;;;;;;;;;;5057257;28;20495;-65
2023/12/18 00:07:34;;;;;;;6.60;4.18;;;;;;;;;;5060694;28;20048;-66
2023/12/18 00:10:00;;;;;;;5.35;4.07;;;;;;;;;;5060737;28;20051;-65
2023/12/18 00:12:25;;;;;;;5.15;4.03;;;;;;;;;;5060174;28;20056;-64
2023/12/18 00:14:51;;;;;;;8.27;4.20;;;;;;;;;;5060420;28;20052;-65
2023/12/18 00:17:16;;;;;;;4.57;3.85;;;;;;;;;;5060686;28;20094;-65
2023/12/18 00:19:41;;;;;;;5.70;4.15;;;;;;;;;;5060022;28;20044;-66
2023/12/18 00:22:07;;;;;;;6.72;4.93;;;;;;;;;;5060020;28;20040;-66
2023/12/18 00:24:32;;;;;;;7.25;4.97;;;;;;;;;;5060569;28;20055;-67
2023/12/18 00:26:58;;;;;;;6.97;5.40;;;;;;;;;;5060212;28;20043;-67
2023/12/18 00:29:23;;;;;;;7.75;5.45;;;;;;;;;;5060729;28;20076;-67
2023/12/18 00:31:48;;;;;;;14.88;7.00;;;;;;;;;;5059428;28;20044;-68
2023/12/18 00:34:14;;;;;;;9.73;6.20;;;;;;;;;;5059680;28;20048;-66
2023/12/18 00:36:40;;;;;;;11.70;6.22;;;;;;;;;;5059874;28;20040;-66
2023/12/18 00:39:05;;;;;;;9.82;6.22;;;;;;;;;;5060382;28;20072;-66
2023/12/18 00:41:32;;;;;;;11.23;6.70;;;;;;;;;;5041861;28;20554;-68
2023/12/18 00:43:57;;;;;;;10.77;6.32;;;;;;;;;;5058741;28;20067;-65
2023/12/18 00:46:22;;;;;;;8.43;5.50;;;;;;;;;;5060241;28;20057;-66
2023/12/18 00:48:48;;;;;;;6.97;4.05;;;;;;;;;;5041170;28;20068;-66
2023/12/18 00:51:13;;;;;;;5.40;4.15;;;;;;;;;;5060045;28;21450;-66
2023/12/18 00:53:38;;;;;;;4.45;3.83;;;;;;;;;;5059011;28;20052;-67
2023/12/18 00:56:04;;;;;;;3.47;2.85;;;;;;;;;;5059090;28;20051;-65
2023/12/18 00:58:30;;;;;;;2.97;2.72;;;;;;;;;;5060305;28;20080;-65
2023/12/18 01:00:55;;;;;;;4.43;3.47;;;;;;;;;;5059373;28;20041;-66
2023/12/18 01:03:20;;;;;;;5.53;4.05;;;;;;;;;;5041539;28;20909;-67
2023/12/18 01:05:46;;;;;;;5.93;4.47;;;;;;;;;;5058053;28;20059;-66
2023/12/18 01:08:12;;;;;;;5.65;4.60;;;;;;;;;;5059722;28;20076;-66
2023/12/18 01:10:38;;;;;;;8.52;3.90;;;;;;;;;;5060291;28;20055;-66
2023/12/18 01:13:03;;;;;;;5.00;3.70;;;;;;;;;;5059653;28;20044;-67
2023/12/18 01:15:29;;;;;;;4.43;3.15;;;;;;;;;;5059813;28;20146;-66
2023/12/18 01:17:54;;;;;;;4.03;3.13;;;;;;;;;;5057590;28;20071;-66
2023/12/18 01:20:20;;;;;;;4.07;3.10;;;;;;;;;;5058852;28;20129;-66
2023/12/18 01:22:45;;;;;;;4.35;3.42;;;;;;;;;;5059351;28;20048;-68
2023/12/18 01:25:10;;;;;;;4.90;4.07;;;;;;;;;;5059639;28;20071;-65
2023/12/18 01:27:36;;;;;;;7.63;4.35;;;;;;;;;;5057299;28;20055;-66
2023/12/18 01:30:02;;;;;;;9.00;4.28;;;;;;;;;;5057893;28;20142;-66
2023/12/18 01:32:27;;;;;;;6.32;4.07;;;;;;;;;;5057299;28;20052;-66
2023/12/18 01:34:53;;;;;;;11.15;4.65;;;;;;;;;;5057515;28;20076;-66
2023/12/18 01:37:18;;;;;;;4.93;4.30;;;;;;;;;;5039112;28;20495;-66
2023/12/18 01:39:43;;;;;;;6.63;5.05;;;;;;;;;;5057225;28;20526;-68
2023/12/18 01:42:09;;;;;;;5.40;4.13;;;;;;;;;;5059193;28;20063;-68
2023/12/18 01:44:34;;;;;;;5.03;4.05;;;;;;;;;;5059211;28;20708;-66
2023/12/18 01:47:00;;;;;;;6.03;3.63;;;;;;;;;;5058931;28;21094;-66
2023/12/18 01:49:25;;;;;;;5.65;4.57;;;;;;;;;;5058544;28;20087;-66
2023/12/18 01:51:51;;;;;;;4.85;3.70;;;;;;;;;;5058157;28;20066;-66
2023/12/18 01:54:20;;;;;;;4.85;3.10;;;;;;;;;;5058593;28;20131;-66
2023/12/18 01:56:45;;;;;;;2.50;2.30;;;;;;;;;;5058799;28;20139;-66
2023/12/18 01:59:11;;;;;;;4.40;3.42;;;;;;;;;;5058940;28;20135;-68
2023/12/18 02:01:37;;;;;;;6.30;4.30;;;;;;;;;;5057746;28;20138;-67
2023/12/18 02:04:03;;;;;;;7.35;5.28;;;;;;;;;;5058137;28;20076;-66
2023/12/18 02:06:28;;;;;;;4.70;3.22;;;;;;;;;;5058849;28;20434;-66
2023/12/18 02:08:56;;;;;;;7.70;4.93;;;;;;;;;;5058031;28;20076;-68
2023/12/18 02:11:22;;;;;;;6.47;4.40;;;;;;;;;;5057994;28;20055;-67
2023/12/18 02:13:48;;;;;;;5.57;4.05;;;;;;;;;;5057666;28;20052;-69
2023/12/18 02:16:13;;;;;;;3.53;3.20;;;;;;;;;;5058227;28;20093;-67
2023/12/18 02:18:43;;;;;;;4.70;3.60;;;;;;;;;;5058538;28;20040;-68
2023/12/18 02:21:09;;;;;;;4.10;3.40;;;;;;;;;;5058430;28;20041;-66
2023/12/18 02:23:34;;;;;;;6.80;5.25;;;;;;;;;;5056974;28;20442;-67
2023/12/18 02:25:59;;;;;;;5.80;4.30;;;;;;;;;;5057751;28;20040;-66
2023/12/18 02:28:25;;;;;;;3.63;3.20;;;;;;;;;;5039369;28;20421;-66
2023/12/18 02:30:51;;;;;;;3.08;2.78;;;;;;;;;;5058094;28;20044;-67
2023/12/18 02:33:16;;;;;;;3.13;2.70;;;;;;;;;;5056694;28;20079;-67
2023/12/18 02:35:42;;;;;;;2.95;2.65;;;;;;;;;;5057602;28;20067;-67
2023/12/18 02:38:07;;;;;;;3.63;3.22;;;;;;;;;;5057785;28;20051;-67
2023/12/18 02:40:33;;;;;;;2.97;2.60;;;;;;;;;;5039682;28;20072;-66
2023/12/18 02:42:58;;;;;;;2.60;2.40;;;;;;;;;;5057587;28;20759;-65
2023/12/18 02:45:23;;;;;;;3.90;3.13;;;;;;;;;;5056639;28;20055;-66
2023/12/18 02:47:49;;;;;;;4.82;2.75;;;;;;;;;;5057199;28;20040;-67
2023/12/18 02:50:15;;;;;;;4.53;3.67;;;;;;;;;;5039565;28;20048;-66
2023/12/18 02:52:40;;;;;;;9.02;3.10;;;;;;;;;;5058097;28;20463;-66
2023/12/18 02:55:07;;;;;;;3.40;2.97;;;;;;;;;;5056337;28;20566;-66
2023/12/18 02:57:32;;;;;;;3.67;2.85;;;;;;;;;;5058025;28;20044;-66
2023/12/18 02:59:58;;;;;;;3.50;3.20;;;;;;;;;;5056595;28;20114;-66
2023/12/18 03:02:23;;;;;;;5.50;3.90;;;;;;;;;;5039803;28;20052;-65
2023/12/18 03:04:48;;;;;;;3.92;3.15;;;;;;;;;;5057156;28;20036;-66
2023/12/18 03:07:14;;;;;;;2.92;2.60;;;;;;;;;;5057003;28;20106;-66
2023/12/18 03:09:39;;;;;;;4.00;2.58;;;;;;;;;;5056889;28;20059;-67
2023/12/18 03:12:05;;;;;;;3.75;3.08;;;;;;;;;;5057358;28;20127;-66
2023/12/18 03:14:30;;;;;;;5.47;2.90;;;;;;;;;;5057410;28;20105;-66
2023/12/18 03:16:56;;;;;;;4.75;3.42;;;;;;;;;;5057130;28;20075;-66
2023/12/18 03:19:21;;;;;;;2.95;2.33;;;;;;;;;;5056869;28;20128;-66
2023/12/18 03:21:47;;;;;;;3.92;2.60;;;;;;;;;;5056830;28;20383;-66
2023/12/18 03:24:12;;;;;;;2.60;2.38;;;;;;;;;;5057098;28;20040;-64
2023/12/18 03:26:38;;;;;;;2.75;2.30;;;;;;;;;;5057631;28;20046;-66
2023/12/18 03:29:03;;;;;;;3.10;2.70;;;;;;;;;;5056464;28;20528;-66
2023/12/18 03:31:29;;;;;;;3.03;2.60;;;;;;;;;;5057754;28;20959;-66
2023/12/18 03:33:54;;;;;;;2.83;2.38;;;;;;;;;;5055964;28;20383;-66
2023/12/18 03:36:20;;;;;;;4.30;2.60;;;;;;;;;;5057278;28;20150;-66
2023/12/18 03:38:46;;;;;;;3.05;2.78;;;;;;;;;;5057809;28;20032;-66
2023/12/18 03:41:11;;;;;;;2.63;2.30;;;;;;;;;;5056366;28;20935;-66
2023/12/18 03:43:37;;;;;;;2.50;2.08;;;;;;;;;;5056545;28;20125;-67
2023/12/18 03:46:02;;;;;;;4.20;2.67;;;;;;;;;;5056569;28;20673;-65
2023/12/18 03:48:27;;;;;;;2.80;2.20;;;;;;;;;;5057393;28;20135;-66
2023/12/18 03:50:53;;;;;;;2.97;2.28;;;;;;;;;;5056155;28;20052;-66
2023/12/18 03:53:18;;;;;;;3.17;2.25;;;;;;;;;;5056534;28;20040;-66
2023/12/18 03:55:43;;;;;;;2.22;1.85;;;;;;;;;;5056297;28;20123;-66
2023/12/18 03:58:09;;;;;;;2.88;2.45;;;;;;;;;;5057055;28;20037;-65
2023/12/18 04:00:34;;;;;;;2.60;1.90;;;;;;;;;;5057122;28;20089;-65
2023/12/18 04:03:02;;;;;;;2.60;2.28;;;;;;;;;;5056046;28;20395;-66
2023/12/18 04:05:28;;;;;;;2.08;1.88;;;;;;;;;;5057092;28;20055;-65
2023/12/18 04:07:54;;;;;;;1.98;1.80;;;;;;;;;;5055953;28;20139;-68
2023/12/18 04:10:20;;;;;;;2.47;1.55;;;;;;;;;;5052593;28;20051;-66
2023/12/18 04:12:45;;;;;;;2.00;1.73;;;;;;;;;;5055815;28;20028;-66
2023/12/18 04:15:11;;;;;;;1.67;1.58;;;;;;;;;;5056246;28;20036;-65
2023/12/18 04:17:37;;;;;;;1.60;1.50;;;;;;;;;;5056331;28;20063;-67
2023/12/18 04:20:04;;;;;;;3.22;2.22;;;;;;;;;;5056419;28;20503;-67
2023/12/18 04:22:30;;;;;;;3.13;2.03;;;;;;;;;;5056893;28;20047;-67
2023/12/18 04:24:55;;;;;;;2.28;1.77;;;;;;;;;;5055362;28;20048;-67
2023/12/18 04:27:21;;;;;;;2.17;1.63;;;;;;;;;;5056987;28;20041;-67
2023/12/18 04:29:46;;;;;;;2.95;1.65;;;;;;;;;;5055388;28;20109;-66
2023/12/18 04:32:12;;;;;;;4.30;2.38;;;;;;;;;;5055614;28;20040;-66
2023/12/18 04:34:37;;;;;;;3.83;2.30;;;;;;;;;;5055526;28;20556;-67
2023/12/18 04:37:03;;;;;;;2.92;2.65;;;;;;;;;;5056809;28;20252;-67
2023/12/18 04:39:28;;;;;;;41.45;17.98;;;;;;;;;;5038007;28;20056;-67
2023/12/18 04:41:53;;;;;;;8.98;5.93;;;;;;;;;;5055462;28;20246;-67
2023/12/18 04:44:19;;;;;;;11.68;6.15;;;;;;;;;;5056413;28;20051;-66
2023/12/18 04:46:46;;;;;;;8.55;4.32;;;;;;;;;;5056101;28;20040;-66
2023/12/18 04:49:13;;;;;;;4.70;3.50;;;;;;;;;;5056227;28;20047;-66
2023/12/18 04:51:38;;;;;;;3.55;2.90;;;;;;;;;;5057962;28;20052;-67
2023/12/18 04:54:03;;;;;;;3.67;2.58;;;;;;;;;;5059812;28;20075;-67
2023/12/18 04:56:29;;;;;;;2.63;2.40;;;;;;;;;;5059252;28;20044;-67
2023/12/18 04:58:54;;;;;;;2.30;2.10;;;;;;;;;;5059734;28;20036;-66
2023/12/18 05:01:20;;;;;;;4.05;2.70;;;;;;;;;;5059477;28;20090;-67
2023/12/18 05:03:45;;;;;;;2.85;2.40;;;;;;;;;;5059464;28;20072;-67
2023/12/18 05:06:26;;;;;;;3.35;2.20;;;;;;;;;;5058349;28;20052;-67
2023/12/18 05:08:51;;;;;;;3.80;2.22;;;;;;;;;;5059266;28;20128;-67
2023/12/18 05:11:18;;;;;;;4.18;1.98;;;;;;;;;;5059902;28;20047;-67
2023/12/18 05:13:44;;;;;;;2.13;1.92;;;;;;;;;;5059031;28;20032;-67
2023/12/18 05:16:09;;;;;;;3.05;2.25;;;;;;;;;;5058703;28;20052;-67
2023/12/18 05:18:35;;;;;;;2.42;2.22;;;;;;;;;;5057793;28;20047;-66
2023/12/18 05:21:01;;;;;;;2.20;2.03;;;;;;;;;;5059038;28;20204;-66
2023/12/18 05:23:26;;;;;;;3.42;2.42;;;;;;;;;;5058890;28;20139;-67
2023/12/18 05:25:52;;;;;;;2.88;2.53;;;;;;;;;;5057131;28;20068;-67
2023/12/18 05:28:18;;;;;;;3.38;2.40;;;;;;;;;;5058677;28;20058;-67
2023/12/18 05:30:44;;;;;;;3.00;2.70;;;;;;;;;;5057499;28;20075;-67
2023/12/18 05:33:10;;;;;;;3.85;2.67;;;;;;;;;;5057627;28;20040;-67
2023/12/18 05:35:36;;;;;;;2.70;2.45;;;;;;;;;;5056646;28;20051;-68
2023/12/18 05:38:01;;;;;;;2.33;2.05;;;;;;;;;;5056372;28;20040;-67
2023/12/18 05:40:27;;;;;;;3.10;2.80;;;;;;;;;;5056237;28;20661;-67
2023/12/18 05:42:52;;;;;;;2.75;2.50;;;;;;;;;;5022828;28;20036;-67
2023/12/18 05:45:17;;;;;;;3.30;2.80;;;;;;;;;;5021701;28;20511;-67
2023/12/18 05:47:43;;;;;;;4.38;2.53;;;;;;;;;;5057108;28;20053;-68
2023/12/18 05:50:08;;;;;;;2.58;2.38;;;;;;;;;;5057261;28;20044;-67
2023/12/18 05:52:34;;;;;;;3.63;2.60;;;;;;;;;;5033968;28;20048;-67
2023/12/18 05:54:59;;;;;;;4.00;2.60;;;;;;;;;;5053121;28;20044;-67
2023/12/18 05:57:25;;;;;;;3.05;2.70;;;;;;;;;;5057991;28;20043;-67
2023/12/18 05:59:50;;;;;;;3.13;2.67;;;;;;;;;;5057798;28;20151;-68
2023/12/18 06:02:15;;;;;;;5.53;2.70;;;;;;;;;;5037926;28;20700;-67
2023/12/18 06:04:44;;;;;;;3.58;2.78;;;;;;;;;;5056938;28;20052;-67
2023/12/18 06:07:10;;;;;;;5.45;2.67;;;;;;;;;;5057476;28;20511;-67
2023/12/18 06:09:36;;;;;;;2.83;2.63;;;;;;;;;;5052010;28;20076;-69
2023/12/18 06:12:02;;;;;;;3.28;2.38;;;;;;;;;;5053958;28;20095;-66
2023/12/18 06:14:27;;;;;;;3.97;2.58;;;;;;;;;;5052410;28;20051;-67
2023/12/18 06:16:52;;;;;;;4.03;2.60;;;;;;;;;;5057473;28;20058;-67
2023/12/18 06:19:18;;;;;;;2.47;2.25;;;;;;;;;;5053240;28;20513;-67
2023/12/18 06:21:43;;;;;;;3.72;2.90;;;;;;;;;;5055749;28;20056;-67
2023/12/18 06:24:09;;;;;;;2.40;2.20;;;;;;;;;;5054843;28;20055;-67
2023/12/18 06:26:34;;;;;;;4.18;2.88;;;;;;;;;;5056539;28;20074;-66
2023/12/18 06:28:59;;;;;;;3.65;2.67;;;;;;;;;;5056099;28;20267;-69
2023/12/18 06:31:25;;;;;;;6.10;2.58;;;;;;;;;;5038614;28;20059;-67
2023/12/18 06:33:50;;;;;;;3.45;2.55;;;;;;;;;;5056680;28;20048;-67
2023/12/18 06:36:17;;;;;;;4.80;3.20;;;;;;;;;;5037210;28;20041;-66
2023/12/18 06:38:43;;;;;;;3.08;2.60;;;;;;;;;;5057288;28;20051;-67
2023/12/18 06:41:08;;;;;;;3.80;3.00;;;;;;;;;;5056656;28;20040;-66
2023/12/18 06:43:33;;;;;;;3.67;2.95;;;;;;;;;;5057447;28;20079;-66
2023/12/18 06:45:59;;;;;;;3.38;2.50;;;;;;;;;;5056456;28;20154;-66
2023/12/18 06:48:25;;;;;;;3.20;2.90;;;;;;;;;;5056207;28;20036;-69
2023/12/18 06:50:51;;;;;;;3.42;2.70;;;;;;;;;;5038795;28;20052;-69
2023/12/18 06:53:16;;;;;;;2.80;2.60;;;;;;;;;;5057423;28;20048;-67
2023/12/18 06:55:41;;;;;;;4.10;2.50;;;;;;;;;;5056763;28;20040;-67
2023/12/18 06:58:07;;;;;;;9.98;3.10;;;;;;;;;;5056964;28;20044;-66
2023/12/18 07:00:32;;;;;;;2.58;2.20;;;;;;;;;;5056764;28;20051;-65
2023/12/18 07:02:58;;;;;;;2.60;2.15;;;;;;;;;;5057445;28;20072;-66
2023/12/18 07:05:23;;;;;;;2.67;2.40;;;;;;;;;;5057333;28;20588;-68
2023/12/18 07:07:50;;;;;;;3.00;2.35;;;;;;;;;;5038029;28;20513;-69
2023/12/18 07:10:15;;;;;;;2.88;2.42;;;;;;;;;;5054763;28;20062;-69
2023/12/18 07:12:40;;;;;;;2.75;2.45;;;;;;;;;;5039238;28;20056;-70
2023/12/18 07:15:06;;;;;;;3.97;2.88;;;;;;;;;;5056517;28;20850;-68
2023/12/18 07:17:32;;;;;;;3.72;2.72;;;;;;;;;;5057414;28;20055;-67
2023/12/18 07:19:57;;;;;;;4.90;2.92;;;;;;;;;;5055506;28;20052;-67
2023/12/18 07:22:23;;;;;;;4.22;3.30;;;;;;;;;;5056056;28;20733;-68
2023/12/18 07:24:49;;;;;;;3.10;2.70;;;;;;;;;;5057145;28;20091;-67
2023/12/18 07:27:14;;;;;;;3.20;2.90;;;;;;;;;;5056693;28;20044;-67
2023/12/18 07:29:40;;;;;;;5.57;2.88;;;;;;;;;;5038171;28;20036;-67
2023/12/18 07:32:06;;;;;;;4.70;2.90;;;;;;;;;;5054513;28;20053;-67
2023/12/18 07:34:31;;;;;;;4.63;3.05;;;;;;;;;;5056968;28;20089;-67
2023/12/18 07:36:57;;;;;;;4.47;3.25;;;;;;;;;;5057218;28;20131;-67
2023/12/18 07:39:22;;;;;;;4.55;3.10;;;;;;;;;;5056415;28;20063;-67
2023/12/18 07:41:47;;;;;;;3.80;3.40;;;;;;;;;;5054810;28;20127;-67
2023/12/18 07:44:13;;;;;;;5.72;4.13;;;;;;;;;;5056216;28;20098;-67
2023/12/18 07:46:39;;;;;;;4.75;3.80;;;;;;;;;;5056624;28;20109;-67
2023/12/18 07:49:04;;;;;;;4.47;3.70;;;;;;;;;;5056424;28;20053;-67
2023/12/18 07:51:30;;;;;;;3.17;2.97;;;;;;;;;;5056346;28;20052;-67
2023/12/18 07:53:55;;;;;;;2.08;1.88;;;;;;;;;;5054955;28;20144;-68
2023/12/18 07:56:21;;;;;;;3.08;2.33;;;;;;;;;;5056593;28;20138;-68
2023/12/18 07:58:47;;;;;;;2.13;1.92;;;;;;;;;;5056826;28;20044;-68
2023/12/18 08:01:16;;;;;;;1.88;1.70;;;;;;;;;;5056229;28;20054;-68
2023/12/18 08:03:42;;;;;;;51.35;8.27;;;;;;;;;;5054731;28;20507;-68
2023/12/18 08:06:07;;;;;;;49.13;5.45;;;;;;;;;;5056513;28;20106;-68
2023/12/18 08:08:33;;;;;;;3.03;1.70;;;;;;;;;;5037351;28;20032;-68
2023/12/18 08:10:58;;;;;;;2.28;2.08;;;;;;;;;;5056642;28;20048;-67
2023/12/18 08:13:24;;;;;;;1.70;1.60;;;;;;;;;;5055740;28;20044;-68
2023/12/18 08:15:49;;;;;;;2.72;1.83;;;;;;;;;;5036439;28;20072;-68
2023/12/18 08:18:15;;;;;;;1.30;1.20;;;;;;;;;;5056117;28;20080;-68
2023/12/18 08:20:43;;;;;;;1.40;1.30;;;;;;;;;;5056911;28;20044;-68
2023/12/18 08:23:08;;;;;;;1.80;1.30;;;;;;;;;;5056083;28;20048;-68
2023/12/18 08:25:33;;;;;;;2.13;1.50;;;;;;;;;;5055224;28;20098;-68
2023/12/18 08:27:59;;;;;;;1.50;1.40;;;;;;;;;;5059838;28;20060;-69
2023/12/18 08:30:24;;;;;;;1.73;1.40;;;;;;;;;;5059764;28;20052;-68
2023/12/18 08:32:49;;;;;;;1.83;1.40;;;;;;;;;;5042316;28;20045;-68
2023/12/18 08:35:15;;;;;;;2.55;1.42;;;;;;;;;;5059230;28;21405;-67
2023/12/18 08:37:40;;;;;;;2.45;1.50;;;;;;;;;;5041042;28;20036;-68
2023/12/18 08:40:06;;;;;;;4.35;1.50;;;;;;;;;;5060128;28;20464;-67
2023/12/18 08:42:32;;;;;;;2.35;1.30;;;;;;;;;;5042223;28;20144;-68
2023/12/18 08:44:57;;;;;;;1.42;1.30;;;;;;;;;;5059982;28;20044;-68
2023/12/18 08:47:22;;;;;;;2.47;1.75;;;;;;;;;;5059139;28;20051;-67
2023/12/18 08:49:48;;;;;;;1.48;1.33;;;;;;;;;;5041594;28;20412;-67
2023/12/18 08:52:13;;;;;;;1.70;1.60;;;;;;;;;;5059864;28;20315;-68
2023/12/18 08:54:38;;;;;;;2.83;1.33;;;;;;;;;;5059744;28;20040;-67
2023/12/18 08:57:04;;;;;;;1.75;1.50;;;;;;;;;;5060003;28;20056;-68
2023/12/18 08:59:29;;;;;;;3.00;1.75;;;;;;;;;;5058952;28;20085;-68
2023/12/18 09:01:55;;;;;;;2.47;1.60;;;;;;;;;;5059332;28;20048;-68
2023/12/18 09:04:20;;;;;;;2.47;1.80;;;;;;;;;;5059685;28;20048;-68
2023/12/18 09:06:45;;;;;;;1.90;1.60;;;;;;;;;;5059929;28;20051;-68
2023/12/18 09:09:11;;;;;;;2.67;1.70;;;;;;;;;;5058318;28;20673;-69
2023/12/18 09:11:37;;;;;;;2.08;1.77;;;;;;;;;;5060262;28;20047;-68
2023/12/18 09:14:05;;;;;;;2.10;1.75;;;;;;;;;;5057806;28;20059;-68
2023/12/18 09:16:31;;;;;;;2.22;2.00;;;;;;;;;;5058421;28;20048;-68
2023/12/18 09:18:56;;;;;;;4.75;2.42;;;;;;;;;;5059793;28;20041;-67
2023/12/18 09:21:22;;;;;;;2.25;1.98;;;;;;;;;;5058512;28;20041;-68
2023/12/18 09:23:47;;;;;;;2.20;2.00;;;;;;;;;;5058689;28;20517;-68
2023/12/18 09:26:16;;;;;;;3.78;2.10;;;;;;;;;;5058566;28;20052;-68
2023/12/18 09:28:42;;;;;;;3.25;2.30;;;;;;;;;;5059418;28;20068;-68
2023/12/18 09:31:08;;;;;;;3.00;2.60;;;;;;;;;;5058408;28;20044;-69
2023/12/18 09:33:34;;;;;;;2.97;2.63;;;;;;;;;;5058947;28;20040;-69
2023/12/18 09:36:00;;;;;;;4.70;2.40;;;;;;;;;;5058959;28;20129;-69
2023/12/18 09:38:25;;;;;;;2.63;2.17;;;;;;;;;;5058206;28;20097;-69
2023/12/18 09:40:51;;;;;;;5.10;2.50;;;;;;;;;;5059223;28;20044;-69
2023/12/18 09:43:17;;;;;;;3.17;2.53;;;;;;;;;;5057734;28;20048;-69
2023/12/18 09:45:47;;;;;;;4.32;3.05;;;;;;;;;;5058325;28;20629;-68
2023/12/18 09:48:14;;;;;;;3.65;2.58;;;;;;;;;;5058583;28;20052;-68
2023/12/18 09:50:40;;;;;;;8.70;3.50;;;;;;;;;;5059172;28;20548;-69
2023/12/18 09:53:11;;;;;;;4.28;2.80;;;;;;;;;;5058821;28;20048;-68
2023/12/18 09:55:36;;;;;;;5.63;2.97;;;;;;;;;;5058573;28;20040;-68
2023/12/18 09:58:02;;;;;;;3.78;2.75;;;;;;;;;;5057834;28;20122;-68
2023/12/18 10:00:28;;;;;;;4.82;2.70;;;;;;;;;;5058000;28;20403;-69
2023/12/18 10:02:55;;;;;;;3.58;2.50;;;;;;;;;;5058750;28;20044;-68
2023/12/18 10:05:21;;;;;;;3.58;2.60;;;;;;;;;;5057589;28;20135;-68
2023/12/18 10:07:46;;;;;;;2.55;2.13;;;;;;;;;;5057925;28;20918;-69
2023/12/18 10:10:12;;;;;;;3.35;2.35;;;;;;;;;;5057694;28;20071;-68
2023/12/18 10:12:40;;;;;;;2.80;2.22;;;;;;;;;;5058510;28;20052;-69
2023/12/18 10:15:11;;;;;;;2.40;2.20;;;;;;;;;;5058093;28;20037;-68
2023/12/18 10:17:41;;;;;;;5.63;2.40;;;;;;;;;;5058440;28;20043;-69
2023/12/18 10:20:08;;;;;;;3.88;2.17;;;;;;;;;;5057299;28;20048;-68
2023/12/18 10:22:34;;;;;;;2.47;1.85;;;;;;;;;;5040356;28;20634;-68
2023/12/18 10:25:00;;;;;;;2.15;1.95;;;;;;;;;;5057995;28;20036;-69
2023/12/18 10:27:25;;;;;;;3.75;1.92;;;;;;;;;;5057502;28;20530;-69
2023/12/18 10:29:51;;;;;;;4.07;2.33;;;;;;;;;;5057055;28;20494;-68
2023/12/18 10:32:17;;;;;;;1.85;1.73;;;;;;;;;;5057453;28;20438;-69
2023/12/18 10:34:46;;;;;;;2.83;1.70;;;;;;;;;;5057983;28;20685;-68
2023/12/18 10:37:11;;;;;;;2.92;1.88;;;;;;;;;;5037336;28;20081;-69
2023/12/18 10:39:40;;;;;;;2.15;2.00;;;;;;;;;;5057393;28;20049;-69
2023/12/18 10:42:16;;;;;;;2.80;1.90;;;;;;;;;;5057009;28;20181;-69
2023/12/18 10:44:43;;;;;;;3.28;1.65;;;;;;;;;;5057752;28;20052;-69
2023/12/18 10:47:09;;;;;;;1.92;1.73;;;;;;;;;;5039729;28;20982;-69
2023/12/18 10:49:38;;;;;;;3.92;1.83;;;;;;;;;;5056288;28;20545;-69
2023/12/18 10:52:05;;;;;;;2.90;2.10;;;;;;;;;;5056459;28;20057;-69
2023/12/18 10:54:31;;;;;;;3.60;2.40;;;;;;;;;;5056517;28;20094;-70
2023/12/18 10:56:58;;;;;;;3.17;1.92;;;;;;;;;;5057972;28;20044;-68
2023/12/18 10:59:26;;;;;;;2.97;1.70;;;;;;;;;;5032008;28;20033;-69
2023/12/18 11:01:52;;;;;;;2.25;1.92;;;;;;;;;;5020952;28;20052;-69
2023/12/18 11:04:18;;;;;;;1.60;1.48;;;;;;;;;;5025933;28;20048;-69
2023/12/18 11:06:47;;;;;;;2.83;1.70;;;;;;;;;;5037529;28;20693;-69
2023/12/18 11:09:12;;;;;;;1.77;1.45;;;;;;;;;;5036795;28;20708;-68
2023/12/18 11:11:38;;;;;;;2.15;1.60;;;;;;;;;;5036389;28;20045;-68
2023/12/18 11:14:19;;;;;;;1.98;1.67;;;;;;;;;;5036665;28;20080;-69
2023/12/18 11:17:08;;;;;;;1.75;1.60;;;;;;;;;;5037516;28;20114;-70
2023/12/18 11:19:50;;;;;;;1.70;1.60;;;;;;;;;;5022017;28;20048;-69
2023/12/18 11:22:15;;;;;;;;;;;;;;;;;;5035687;28;20057;-68
2023/12/18 11:24:44;;;;;;;1.55;1.45;;;;;;;;;;5036997;28;19967;-68
2023/12/18 11:27:12;;;;;;;1.85;1.67;;;;;;;;;;5037351;28;20049;-69
2023/12/18 11:29:37;;;;;;;3.00;1.95;;;;;;;;;;5036862;28;20111;-69
2023/12/18 11:32:03;;;;;;;1.83;1.40;;;;;;;;;;5035818;28;20443;-69
2023/12/18 11:34:29;;;;;;;1.42;1.33;;;;;;;;;;5035502;28;20065;-69
2023/12/18 11:36:54;;;;;;;3.25;1.50;;;;;;;;;;5037465;28;20080;-69
2023/12/18 11:39:21;;;;;;;2.35;1.65;;;;;;;;;;5036598;28;20446;-69
2023/12/18 11:41:47;;;;;;;1.92;1.60;;;;;;;;;;5036756;28;20049;-69
2023/12/18 11:44:16;;;;;;;2.00;1.80;;;;;;;;;;5035588;28;20504;-69
2023/12/18 11:46:44;;;;;;;2.05;1.60;;;;;;;;;;5036601;28;20041;-69
2023/12/18 11:49:11;;;;;;;3.80;2.03;;;;;;;;;;5037574;28;20048;-68
2023/12/18 11:51:41;;;;;;;2.10;1.75;;;;;;;;;;5037000;28;20056;-68
2023/12/18 11:54:07;;;;;;;2.30;2.00;;;;;;;;;;5054587;28;20055;-68
2023/12/18 11:56:40;;;;;;;3.03;1.75;;;;;;;;;;5043755;28;20045;-68
2023/12/18 11:59:06;;;;;;;3.05;1.60;;;;;;;;;;5020553;28;20140;-68
2023/12/18 12:01:32;;;;;;;5.90;1.95;;;;;;;;;;5019420;28;20047;-68
2023/12/18 12:04:00;;;;;;;2.90;1.73;;;;;;;;;;5021072;28;20041;-70
2023/12/18 12:06:26;;;;;;;7.35;1.92;;;;;;;;;;5022241;28;20508;-69
2023/12/18 12:08:51;;;;;;;5.38;2.00;;;;;;;;;;5022486;28;20053;-68
2023/12/18 12:11:18;;;;;;;2.55;1.70;;;;;;;;;;5022149;28;20069;-69
2023/12/18 12:13:48;;;;;;;2.85;1.63;;;;;;;;;;5020841;28;21011;-69
2023/12/18 12:16:17;;;;;;;2.45;1.77;;;;;;;;;;5022659;28;20044;-69
2023/12/18 12:18:54;;;;;;;2.10;1.60;;;;;;;;;;5021826;28;20041;-68
2023/12/18 12:21:21;;;;;;;1.92;1.60;;;;;;;;;;5021998;28;20041;-68
2023/12/18 12:23:49;;;;;;;1.60;1.50;;;;;;;;;;5025223;28;20049;-70
2023/12/18 12:26:20;;;;;;;1.80;1.60;;;;;;;;;;5021546;28;20045;-69
2023/12/18 12:28:48;;;;;;;2.07;1.63;;;;;;;;;;5022809;28;20146;-67
2023/12/18 12:31:16;;;;;;;1.92;1.75;;;;;;;;;;5021445;28;20413;-69
2023/12/18 12:33:43;;;;;;;2.08;1.70;;;;;;;;;;5021765;28;20049;-70
2023/12/18 12:36:09;;;;;;;2.35;1.80;;;;;;;;;;5022785;28;20681;-70
2023/12/18 12:38:44;;;;;;;2.80;1.80;;;;;;;;;;5031041;28;20900;-70
2023/12/18 12:41:10;;;;;;;1.50;1.40;;;;;;;;;;5047015;28;20044;-70
2023/12/18 12:43:35;;;;;;;1.65;1.55;;;;;;;;;;5049081;28;20057;-70
2023/12/18 12:46:01;;;;;;;4.40;1.88;;;;;;;;;;5052042;28;20052;-70
2023/12/18 12:48:28;;;;;;;2.05;1.23;;;;;;;;;;5045634;28;20041;-70
2023/12/18 12:50:53;;;;;;;1.88;1.77;;;;;;;;;;5052638;28;20048;-71
2023/12/18 12:53:18;;;;;;;2.45;1.73;;;;;;;;;;5051391;28;20059;-71
2023/12/18 12:55:44;;;;;;;1.58;1.45;;;;;;;;;;5043325;28;20044;-71
2023/12/18 12:58:11;;;;;;;1.83;1.55;;;;;;;;;;5044385;28;20044;-70
2023/12/18 13:00:37;;;;;;;5.60;2.00;;;;;;;;;;5043436;28;20171;-70
2023/12/18 13:03:03;;;;;;;2.42;1.65;;;;;;;;;;5045897;28;20507;-70
2023/12/18 13:05:29;;;;;;;2.80;1.60;;;;;;;;;;5044766;28;20055;-70
2023/12/18 13:07:58;;;;;;;1.58;1.48;;;;;;;;;;5044716;28;20040;-70
2023/12/18 13:10:25;;;;;;;1.65;1.52;;;;;;;;;;5047004;28;20054;-70
2023/12/18 13:12:51;;;;;;;1.45;1.35;;;;;;;;;;5042825;28;20056;-70
2023/12/18 13:15:17;;;;;;;1.50;1.35;;;;;;;;;;5039493;28;20045;-71
2023/12/18 13:17:42;;;;;;;2.90;1.60;;;;;;;;;;5041256;28;20044;-70
2023/12/18 13:20:09;;;;;;;1.65;1.20;;;;;;;;;;5043013;28;20945;-70
2023/12/18 13:22:34;;;;;;;2.40;1.60;;;;;;;;;;5042398;28;20052;-71
2023/12/18 13:25:00;;;;;;;1.70;1.55;;;;;;;;;;5043710;28;20045;-71
2023/12/18 13:27:26;;;;;;;1.88;1.50;;;;;;;;;;5047203;28;20048;-71
2023/12/18 13:29:52;;;;;;;1.33;1.17;;;;;;;;;;5043740;28;20060;-70
2023/12/18 13:32:18;;;;;;;1.60;1.42;;;;;;;;;;5045646;28;20792;-70
2023/12/18 13:34:43;;;;;;;1.77;1.40;;;;;;;;;;5043576;28;20040;-71
2023/12/18 13:37:09;;;;;;;2.55;1.50;;;;;;;;;;5022491;28;20045;-71
2023/12/18 13:39:36;;;;;;;3.35;1.40;;;;;;;;;;5018419;28;20041;-70
2023/12/18 13:42:02;;;;;;;2.25;1.40;;;;;;;;;;5035501;28;20104;-71
2023/12/18 13:44:28;;;;;;;1.40;1.30;;;;;;;;;;5039625;28;20536;-70
2023/12/18 13:46:54;;;;;;;1.70;1.15;;;;;;;;;;5045078;28;20052;-71
2023/12/18 13:49:20;;;;;;;1.50;1.40;;;;;;;;;;5045054;28;20094;-69
2023/12/18 13:51:45;;;;;;;1.88;1.33;;;;;;;;;;5044940;28;20056;-69
2023/12/18 13:54:11;;;;;;;1.35;1.20;;;;;;;;;;5043939;28;20114;-70
2023/12/18 13:56:37;;;;;;;2.47;1.48;;;;;;;;;;5054128;28;20055;-70
2023/12/18 13:59:03;;;;;;;14.88;2.20;;;;;;;;;;5053601;28;20040;-71
2023/12/18 14:01:28;;;;;;;14.30;2.97;;;;;;;;;;5048831;28;20508;-69
2023/12/18 14:03:54;;;;;;;7.50;1.40;;;;;;;;;;5050149;28;20067;-69
2023/12/18 14:06:20;;;;;;;2.40;1.60;;;;;;;;;;5047661;28;20093;-70
2023/12/18 14:08:46;;;;;;;5.15;1.70;;;;;;;;;;5046885;28;20092;-70
2023/12/18 14:11:11;;;;;;;6.93;1.70;;;;;;;;;;5051925;28;21236;-70
2023/12/18 14:13:37;;;;;;;1.70;1.30;;;;;;;;;;5050091;28;20056;-69
2023/12/18 14:16:05;;;;;;;1.98;1.48;;;;;;;;;;5047650;28;20052;-70
2023/12/18 14:18:32;;;;;;;13.73;2.05;;;;;;;;;;5051556;28;20048;-70
2023/12/18 14:20:58;;;;;;;75.80;8.18;;;;;;;;;;5021805;28;20144;-70
2023/12/18 14:23:24;;;;;;;21.40;3.53;;;;;;;;;;5048129;28;20471;-70
2023/12/18 14:25:51;;;;;;;50.08;5.10;;;;;;;;;;5030604;28;20401;-70
2023/12/18 14:28:17;;;;;;;2.33;1.90;;;;;;;;;;5017790;28;20127;-70
2023/12/18 14:30:42;;;;;;;14.45;3.35;;;;;;;;;;5019967;28;20117;-70
2023/12/18 14:33:07;;;;;;;94.22;9.68;;;;;;;;;;5019193;28;20116;-70
2023/12/18 14:35:33;;;;;;;2.80;2.05;;;;;;;;;;5016548;28;20640;-69